createdAt,value
2022-09-17T11:52:27.072Z,1.67
2022-09-17T11:53:04.816Z,1.47
2022-09-17T11:53:56.695Z,1.30
2022-09-17T11:54:36.001Z,1.20
2022-09-17T11:55:07.983Z,1.67
2022-09-17T11:55:42.863Z,1.00
2022-09-17T11:56:16.141Z,1.20
2022-09-17T11:56:53.690Z,1.27
2022-09-17T11:57:27.570Z,1.20
2022-09-17T11:58:01.884Z,1.38
2022-09-17T11:58:55.873Z,1.10
2022-09-17T11:59:37.756Z,1.13
2022-09-17T12:00:20.032Z,1.00
2022-09-17T12:01:01.292Z,0.97
2022-09-17T12:01:37.362Z,1.20
2022-09-17T12:02:09.453Z,1.17
2022-09-17T12:03:02.531Z,1.42
2022-09-17T12:03:36.161Z,1.23
2022-09-17T12:04:26.807Z,1.00
2022-09-17T12:05:01.812Z,1.10
2022-09-17T12:05:52.487Z,1.08
2022-09-17T12:06:31.697Z,1.30
2022-09-17T12:07:22.001Z,1.30
2022-09-17T12:08:14.707Z,1.20
2022-09-17T12:08:56.817Z,1.20
2022-09-17T12:09:31.928Z,1.20
2022-09-17T12:10:15.881Z,0.88
2022-09-17T12:11:03.005Z,1.00
2022-09-17T12:11:41.345Z,1.00
2022-09-17T12:12:47.725Z,1.05
2022-09-17T12:13:22.240Z,1.05
2022-09-17T12:13:57.077Z,1.35
2022-09-17T12:14:29.048Z,1.00
2022-09-17T12:15:07.294Z,1.00
2022-09-17T12:15:41.646Z,1.00
2022-09-17T12:16:16.604Z,1.13
2022-09-17T12:16:50.695Z,1.10
2022-09-17T12:17:36.875Z,0.80
2022-09-17T12:18:32.314Z,1.33
2022-09-17T12:19:05.541Z,0.90
2022-09-17T12:19:40.941Z,1.35
2022-09-17T12:20:33.895Z,1.20
2022-09-17T12:21:08.495Z,1.27
2022-09-17T12:21:46.576Z,0.88
2022-09-17T12:22:18.603Z,1.10
2022-09-17T12:22:51.396Z,1.10
2022-09-17T12:23:35.844Z,0.85
2022-09-17T12:24:12.985Z,0.90
2022-09-17T12:24:45.485Z,0.80
2022-09-17T12:25:17.659Z,0.98
2022-09-17T12:26:05.550Z,0.90
2022-09-17T12:26:40.299Z,1.08
2022-09-17T12:27:17.021Z,0.90
2022-09-17T12:27:48.999Z,1.13
2022-09-17T12:28:33.031Z,1.15
2022-09-17T12:29:11.181Z,1.00
2022-09-17T12:29:49.991Z,0.90
2022-09-17T12:30:29.732Z,1.10
2022-09-17T12:31:14.598Z,0.95
2022-09-17T12:32:04.343Z,1.17
2022-09-17T12:32:39.337Z,0.98
2022-09-17T12:33:17.231Z,1.38
2022-09-17T12:34:03.065Z,0.70
2022-09-17T12:34:59.609Z,1.00
2022-09-17T12:36:04.009Z,0.80
2022-09-17T12:36:40.251Z,1.40
2022-09-17T12:37:35.151Z,1.10
2022-09-17T12:38:25.807Z,0.80
2022-09-17T12:39:03.260Z,0.70
2022-09-17T12:39:41.561Z,0.63
2022-09-17T12:40:14.016Z,1.30
2022-09-17T12:40:46.145Z,0.75
2022-09-17T12:41:24.004Z,0.90
2022-09-17T12:42:08.207Z,0.73
2022-09-17T12:42:52.293Z,1.10
2022-09-17T12:43:28.613Z,1.00
2022-09-17T12:44:12.644Z,1.00
2022-09-17T12:44:51.473Z,1.00
2022-09-17T12:45:41.997Z,0.90
2022-09-17T12:46:23.243Z,0.93
2022-09-17T12:47:18.058Z,0.82
2022-09-17T12:48:08.334Z,1.25
2022-09-17T12:48:40.281Z,1.08
2022-09-17T12:49:19.360Z,1.00
2022-09-17T12:49:57.378Z,0.90
2022-09-17T12:50:35.868Z,0.90
2022-09-17T12:51:19.619Z,0.90
2022-09-17T12:51:56.718Z,1.00
2022-09-17T12:52:34.753Z,0.77
2022-09-17T12:53:21.270Z,0.95
2022-09-17T12:53:53.213Z,1.20
2022-09-17T12:54:27.961Z,1.10
2022-09-17T12:55:12.393Z,1.15
2022-09-17T12:55:50.896Z,0.90
2022-09-17T12:56:23.221Z,0.88
2022-09-17T12:57:18.373Z,0.88
2022-09-17T12:57:56.741Z,1.00
2022-09-17T12:58:47.449Z,0.90
2022-09-17T12:59:20.788Z,1.00
2022-09-17T12:59:58.857Z,0.90
2022-09-17T13:00:36.503Z,0.68
2022-09-17T13:01:17.712Z,0.80
2022-09-17T13:01:55.141Z,1.00
2022-09-17T13:02:30.797Z,1.08
2022-09-17T13:03:25.279Z,0.77
2022-09-17T13:04:03.180Z,0.98
2022-09-17T13:05:02.197Z,0.90
2022-09-17T13:05:46.678Z,0.73
2022-09-17T13:06:36.782Z,1.15
2022-09-17T13:07:08.716Z,1.23
2022-09-17T13:07:47.954Z,1.35
2022-09-17T13:09:44.652Z,1.30
2022-09-17T13:10:34.451Z,1.38
2022-09-17T13:11:09.105Z,1.20
2022-09-17T13:11:47.348Z,1.38
2022-09-17T13:12:26.868Z,1.55
2022-09-17T13:13:07.936Z,1.30
2022-09-17T13:13:58.742Z,1.02
2022-09-17T13:14:49.320Z,1.55
2022-09-17T13:15:36.538Z,1.05
2022-09-17T13:16:18.385Z,1.25
2022-09-17T13:17:07.362Z,1.70
2022-09-17T13:18:12.392Z,1.40
2022-09-17T13:19:05.660Z,1.75
2022-09-17T13:20:01.200Z,1.45
2022-09-17T13:20:55.370Z,1.23
2022-09-17T13:21:41.167Z,1.75
2022-09-17T13:22:16.178Z,1.77
2022-09-17T13:22:49.867Z,1.65
2022-09-17T13:23:40.388Z,1.13
2022-09-17T13:24:31.395Z,1.98
2022-09-17T13:25:08.519Z,1.55
2022-09-17T13:25:51.456Z,1.67
2022-09-17T13:26:33.547Z,1.50
2022-09-17T13:27:06.227Z,1.30
2022-09-17T13:27:38.990Z,1.30
2022-09-17T13:28:11.283Z,1.45
2022-09-17T13:28:47.583Z,1.60
2022-09-17T13:29:38.559Z,1.40
2022-09-17T13:30:15.561Z,1.75
2022-09-17T13:31:01.485Z,1.50
2022-09-17T13:31:39.512Z,1.40
2022-09-17T13:32:30.293Z,1.50
2022-09-17T13:33:02.503Z,1.27
2022-09-17T13:33:52.865Z,1.77
2022-09-17T13:34:31.796Z,1.30
2022-09-17T13:35:06.747Z,1.20
2022-09-17T13:35:38.756Z,1.67
2022-09-17T13:36:29.133Z,1.15
2022-09-17T13:37:01.982Z,1.52
2022-09-17T13:37:35.496Z,1.25
2022-09-17T13:38:07.616Z,1.27
2022-09-17T13:38:42.570Z,1.30
2022-09-17T13:39:53.101Z,1.30
2022-09-17T13:40:29.008Z,1.15
2022-09-17T13:41:21.528Z,1.58
2022-09-17T13:42:00.603Z,1.90
2022-09-17T13:42:44.304Z,1.10
2022-09-17T13:43:18.775Z,1.42
2022-09-17T13:43:54.374Z,1.02
2022-09-17T13:44:26.444Z,1.25
2022-09-17T13:45:01.889Z,1.40
2022-09-17T13:46:14.648Z,1.30
2022-09-17T13:46:47.811Z,1.23
2022-09-17T13:47:22.432Z,1.20
2022-09-17T13:47:56.098Z,1.35
2022-09-17T13:48:29.651Z,1.40
2022-09-17T13:49:03.470Z,1.30
2022-09-17T13:49:35.680Z,1.30
2022-09-17T13:50:09.458Z,1.60
2022-09-17T13:50:42.607Z,1.60
2022-09-17T13:51:32.490Z,1.35
2022-09-17T13:52:07.922Z,1.50
2022-09-17T13:52:45.261Z,1.38
2022-09-17T13:53:17.533Z,1.40
2022-09-17T13:53:53.160Z,1.42
2022-09-17T13:54:36.691Z,1.58
2022-09-17T13:55:09.517Z,1.63
2022-09-17T13:55:45.952Z,1.30
2022-09-17T13:56:36.757Z,1.55
2022-09-17T13:57:13.387Z,1.50
2022-09-17T13:57:48.338Z,1.40
2022-09-17T13:58:23.287Z,1.50
2022-09-17T13:58:55.424Z,1.50
2022-09-17T13:59:28.109Z,1.45
2022-09-17T14:00:00.978Z,1.70
2022-09-17T14:00:51.827Z,1.60
2022-09-17T14:01:42.224Z,1.27
2022-09-17T14:02:14.437Z,1.58
2022-09-17T14:02:46.561Z,1.35
2022-09-17T14:03:46.518Z,1.58
2022-09-17T14:04:37.234Z,1.42
2022-09-17T14:05:25.063Z,1.50
2022-09-17T14:05:57.861Z,1.60
2022-09-17T14:06:33.615Z,1.20
2022-09-17T14:07:24.087Z,1.30
2022-09-17T14:08:13.531Z,1.83
2022-09-17T14:08:45.743Z,1.30
2022-09-17T14:09:39.073Z,1.75
2022-09-17T14:10:14.366Z,1.70
2022-09-17T14:10:47.382Z,1.35
2022-09-17T14:11:39.825Z,1.58
2022-09-17T14:12:31.216Z,1.40
2022-09-17T14:13:22.071Z,1.17
2022-09-17T14:14:17.237Z,1.20
2022-09-17T14:14:52.140Z,1.60
2022-09-17T14:15:36.221Z,2.13
2022-09-17T14:16:25.659Z,2.10
2022-09-17T14:16:57.736Z,1.58
2022-09-17T14:17:48.234Z,1.40
2022-09-17T14:18:29.302Z,1.40
2022-09-17T14:19:01.447Z,1.50
2022-09-17T14:19:51.493Z,2.30
2022-09-17T14:20:24.532Z,1.73
2022-09-17T14:21:19.868Z,1.73
2022-09-17T14:21:56.644Z,1.50
2022-09-17T14:22:29.850Z,1.77
2022-09-17T14:23:02.654Z,1.63
2022-09-17T14:23:41.908Z,1.60
2022-09-17T14:24:20.363Z,1.52
2022-09-17T14:24:54.284Z,1.70
2022-09-17T14:25:32.487Z,1.92
2022-09-17T14:26:08.455Z,1.58
2022-09-17T14:26:46.007Z,2.00
2022-09-17T14:27:18.050Z,1.60
2022-09-17T14:28:00.529Z,1.60
2022-09-17T14:28:43.034Z,1.63
2022-09-17T14:29:21.516Z,2.05
2022-09-17T14:30:07.017Z,1.60
2022-09-17T14:30:39.091Z,1.95
2022-09-17T14:31:22.844Z,1.70
2022-09-17T14:31:55.763Z,1.50
2022-09-17T14:32:33.125Z,1.90
2022-09-17T14:33:14.216Z,2.10
2022-09-17T14:33:46.607Z,2.03
2022-09-17T14:34:22.301Z,1.58
2022-09-17T14:34:54.687Z,1.98
2022-09-17T14:35:45.820Z,1.70
2022-09-17T14:36:22.061Z,1.27
2022-09-17T14:36:55.624Z,1.52
2022-09-17T14:37:28.472Z,1.70
2022-09-17T14:38:20.899Z,2.70
2022-09-17T14:38:55.002Z,2.00
2022-09-17T14:39:34.272Z,1.85
2022-09-17T14:40:29.286Z,1.60
2022-09-17T14:41:05.130Z,1.73
2022-09-17T14:41:46.480Z,1.35
2022-09-17T14:42:24.460Z,1.88
2022-09-17T14:42:57.867Z,1.80
2022-09-17T14:43:48.559Z,2.03
2022-09-17T14:44:22.012Z,1.42
2022-09-17T14:45:02.415Z,1.88
2022-09-17T14:45:39.184Z,1.67
2022-09-17T14:46:31.284Z,2.05
2022-09-17T14:47:07.208Z,1.60
2022-09-17T14:47:39.500Z,1.40
2022-09-17T14:48:26.782Z,2.03
2022-09-17T14:49:34.382Z,1.77
2022-09-17T14:50:31.840Z,1.60
2022-09-17T14:51:19.214Z,1.23
2022-09-17T14:51:52.013Z,1.98
2022-09-17T14:52:31.551Z,1.45
2022-09-17T14:53:07.614Z,1.73
2022-09-17T14:53:39.613Z,1.60
2022-09-17T14:54:16.163Z,1.92
2022-09-17T14:54:48.328Z,1.65
2022-09-17T14:55:25.300Z,1.40
2022-09-17T14:55:57.328Z,1.50
2022-09-17T14:56:29.348Z,1.20
2022-09-17T14:57:21.722Z,1.50
2022-09-17T14:57:57.787Z,1.80
2022-09-17T14:58:32.636Z,1.40
2022-09-17T14:59:04.721Z,1.65
2022-09-17T14:59:41.863Z,1.42
2022-09-17T15:00:18.510Z,1.65
2022-09-17T15:00:52.894Z,1.60
2022-09-17T15:01:26.979Z,1.17
2022-09-17T15:01:59.566Z,1.50
2022-09-17T15:02:33.534Z,1.60
2022-09-17T15:03:06.302Z,1.17
2022-09-17T15:03:38.379Z,1.20
2022-09-17T15:04:13.068Z,1.38
2022-09-17T15:04:45.299Z,1.58
2022-09-17T15:05:17.512Z,1.60
2022-09-17T15:05:51.103Z,1.60
2022-09-17T15:06:23.528Z,1.40
2022-09-17T15:07:08.847Z,1.48
2022-09-17T15:07:44.994Z,1.52
2022-09-17T15:08:19.217Z,1.30
2022-09-17T15:08:51.370Z,1.40
2022-09-17T15:09:24.810Z,1.38
2022-09-17T15:10:06.316Z,1.50
2022-09-17T15:11:03.094Z,1.60
2022-09-17T15:11:36.699Z,2.00
2022-09-17T15:12:08.936Z,1.30
2022-09-17T15:12:41.406Z,1.67
2022-09-17T15:13:18.538Z,1.30
2022-09-17T15:13:51.482Z,1.30
2022-09-17T15:14:27.748Z,2.00
2022-09-17T15:14:59.993Z,1.35
2022-09-17T15:15:32.659Z,2.10
2022-09-17T15:16:11.325Z,1.80
2022-09-17T15:16:48.109Z,1.30
2022-09-17T15:17:20.247Z,2.10
2022-09-17T15:17:52.779Z,2.15
2022-09-17T15:18:31.415Z,1.92
2022-09-17T15:19:03.784Z,2.50
2022-09-17T15:19:37.717Z,2.33
2022-09-17T15:20:12.876Z,2.53
2022-09-17T15:20:47.009Z,2.47
2022-09-17T15:21:28.847Z,3.58
2022-09-17T15:22:04.836Z,2.78
2022-09-17T15:22:39.048Z,2.63
2022-09-17T15:23:17.547Z,2.35
2022-09-17T15:23:50.411Z,3.05
2022-09-17T15:24:22.600Z,3.40
2022-09-17T15:24:54.748Z,3.15
2022-09-17T15:25:29.468Z,3.10
2022-09-17T15:26:03.323Z,3.33
2022-09-17T15:26:37.692Z,3.17
2022-09-17T15:27:35.996Z,3.05
2022-09-17T15:28:34.116Z,2.67
2022-09-17T15:29:06.617Z,2.35
2022-09-17T15:29:39.903Z,3.33
2022-09-17T15:30:12.657Z,2.80
2022-09-17T15:30:46.704Z,3.50
2022-09-17T15:31:20.329Z,4.40
2022-09-17T15:31:52.687Z,4.90
2022-09-17T15:32:25.319Z,5.22
2022-09-17T15:33:01.076Z,4.85
2022-09-17T15:33:33.497Z,4.38
2022-09-17T15:34:05.622Z,5.28
2022-09-17T15:34:37.789Z,3.35
2022-09-17T15:35:16.052Z,4.22
2022-09-17T15:36:01.987Z,4.65
2022-09-17T15:36:34.494Z,4.55
2022-09-17T15:37:15.240Z,4.65
2022-09-17T15:38:11.637Z,5.30
2022-09-17T15:38:42.210Z,4.50
2022-09-17T15:39:31.156Z,5.50
2022-09-17T15:40:11.691Z,4.75
2022-09-17T15:40:43.857Z,4.05
2022-09-17T15:41:20.953Z,4.95
2022-09-17T15:41:55.952Z,4.10
2022-09-17T15:42:29.787Z,4.32
2022-09-17T15:43:06.418Z,4.55
2022-09-17T15:43:39.340Z,4.38
2022-09-17T15:44:28.930Z,4.68
2022-09-17T15:45:16.880Z,4.15
2022-09-17T15:45:49.126Z,4.20
2022-09-17T15:46:21.361Z,4.32
2022-09-17T15:46:56.785Z,4.03
2022-09-17T15:47:47.405Z,3.75
2022-09-17T15:48:24.827Z,4.45
2022-09-17T15:49:16.821Z,4.28
2022-09-17T15:50:04.636Z,4.40
2022-09-17T15:50:49.977Z,4.43
2022-09-17T15:51:29.023Z,4.05
2022-09-17T15:52:20.879Z,4.10
2022-09-17T15:53:19.257Z,4.47
2022-09-17T15:53:52.596Z,4.38
2022-09-17T15:54:31.929Z,4.43
2022-09-17T15:55:04.309Z,4.97
2022-09-17T15:55:38.280Z,3.85
2022-09-17T15:56:13.226Z,4.40
2022-09-17T15:56:45.435Z,4.50
2022-09-17T15:57:17.762Z,3.78
2022-09-17T15:57:49.954Z,3.47
2022-09-17T15:58:27.047Z,3.95
2022-09-17T15:59:04.623Z,3.67
2022-09-17T15:59:36.773Z,4.25
2022-09-17T16:00:13.111Z,3.97
2022-09-17T16:00:45.183Z,3.72
2022-09-17T16:01:17.548Z,4.00
2022-09-17T16:01:51.373Z,3.85
2022-09-17T16:02:28.106Z,4.15
2022-09-17T16:03:20.209Z,3.88
2022-09-17T16:04:10.716Z,3.60
2022-09-17T16:04:42.825Z,3.60
2022-09-17T16:05:17.607Z,3.83
2022-09-17T16:05:54.178Z,4.00
2022-09-17T16:06:28.655Z,4.00
2022-09-17T16:07:20.683Z,4.00
2022-09-17T16:07:52.708Z,3.90
2022-09-17T16:08:33.711Z,4.07
2022-09-17T16:09:25.985Z,3.70
2022-09-17T16:09:59.358Z,3.67
2022-09-17T16:10:31.581Z,4.10
2022-09-17T16:11:03.583Z,3.70
2022-09-17T16:11:35.647Z,3.90
2022-09-17T16:12:08.189Z,4.28
2022-09-17T16:12:40.284Z,4.28
2022-09-17T16:13:12.349Z,3.85
2022-09-17T16:13:47.436Z,4.03
2022-09-17T16:14:19.530Z,4.30
2022-09-17T16:14:53.007Z,3.70
2022-09-17T16:15:25.028Z,3.70
2022-09-17T16:15:57.075Z,3.80
2022-09-17T16:16:29.226Z,4.15
2022-09-17T16:17:09.112Z,4.45
2022-09-17T16:17:47.503Z,3.80
2022-09-17T16:18:19.550Z,4.13
2022-09-17T16:18:51.551Z,3.28
2022-09-17T16:19:23.560Z,3.80
2022-09-17T16:19:56.155Z,3.53
2022-09-17T16:20:28.411Z,3.90
2022-09-17T16:21:00.396Z,3.80
2022-09-17T16:21:32.579Z,3.92
2022-09-17T16:22:04.798Z,3.80
2022-09-17T16:22:36.833Z,3.88
2022-09-17T16:23:08.981Z,3.80
2022-09-17T16:23:41.065Z,3.95
2022-09-17T16:24:13.053Z,3.45
2022-09-17T16:24:45.085Z,3.92
2022-09-17T16:25:17.628Z,3.67
2022-09-17T16:25:49.812Z,3.92
2022-09-17T16:26:23.451Z,4.38
2022-09-17T16:26:55.497Z,3.97
2022-09-17T16:27:30.105Z,4.32
2022-09-17T16:28:02.155Z,4.15
2022-09-17T16:28:34.438Z,3.97
2022-09-17T16:29:10.572Z,3.63
2022-09-17T16:29:42.559Z,3.90
2022-09-17T16:30:18.724Z,4.07
2022-09-17T16:30:50.816Z,3.63
2022-09-17T16:31:23.933Z,4.03
2022-09-17T16:31:56.109Z,3.58
2022-09-17T16:32:28.169Z,3.63
2022-09-17T16:33:03.545Z,3.95
2022-09-17T16:33:35.569Z,4.15
2022-09-17T16:34:07.546Z,3.88
2022-09-17T16:34:39.551Z,3.95
2022-09-17T16:35:16.943Z,4.07
2022-09-17T16:35:49.524Z,3.50
2022-09-17T16:36:21.783Z,4.18
2022-09-17T16:36:53.924Z,3.30
2022-09-17T16:37:25.986Z,3.63
2022-09-17T16:37:58.230Z,3.65
2022-09-17T16:38:30.530Z,3.70
2022-09-17T16:39:02.611Z,3.30
2022-09-17T16:39:34.747Z,3.45
2022-09-17T16:40:07.243Z,3.40
2022-09-17T16:40:40.898Z,3.70
2022-09-17T16:41:13.210Z,2.97
2022-09-17T16:41:45.311Z,3.40
2022-09-17T16:42:17.388Z,3.22
2022-09-17T16:42:49.555Z,3.65
2022-09-17T16:43:21.764Z,4.10
2022-09-17T16:43:53.786Z,3.60
2022-09-17T16:44:25.793Z,3.50
2022-09-17T16:45:00.142Z,3.60
2022-09-17T16:45:32.270Z,3.30
2022-09-17T16:46:05.641Z,3.50
2022-09-17T16:46:37.734Z,3.47
2022-09-17T16:47:09.793Z,4.00
2022-09-17T16:47:42.338Z,3.00
2022-09-17T16:48:14.416Z,3.17
2022-09-17T16:48:49.812Z,3.25
2022-09-17T16:49:21.854Z,3.65
2022-09-17T16:49:53.911Z,3.45
2022-09-17T16:50:26.259Z,2.80
2022-09-17T16:50:58.569Z,3.00
2022-09-17T16:51:30.623Z,3.50
2022-09-17T16:52:02.780Z,3.60
2022-09-17T16:52:35.234Z,4.00
2022-09-17T16:53:07.562Z,4.28
2022-09-17T16:53:40.104Z,4.18
2022-09-17T16:54:12.391Z,4.50
2022-09-17T16:54:44.954Z,3.88
2022-09-17T16:55:17.918Z,4.40
2022-09-17T16:55:49.967Z,4.20
2022-09-17T16:56:22.245Z,4.63
2022-09-17T16:56:54.250Z,4.50
2022-09-17T16:57:26.378Z,4.50
2022-09-17T16:57:58.940Z,4.80
2022-09-17T16:58:30.961Z,4.40
2022-09-17T16:59:03.053Z,4.43
2022-09-17T16:59:35.169Z,4.35
2022-09-17T17:00:09.155Z,3.95
2022-09-17T17:00:44.824Z,4.35
2022-09-17T17:01:17.008Z,4.22
2022-09-17T17:01:50.143Z,3.92
2022-09-17T17:02:22.150Z,4.20
2022-09-17T17:02:55.878Z,4.35
2022-09-17T17:03:28.048Z,4.18
2022-09-17T17:04:01.007Z,3.60
2022-09-17T17:04:33.347Z,4.00
2022-09-17T17:05:06.071Z,3.63
2022-09-17T17:05:38.201Z,3.83
2022-09-17T17:06:17.184Z,3.85
2022-09-17T17:06:49.187Z,4.05
2022-09-17T17:07:21.270Z,4.03
2022-09-17T17:07:55.291Z,4.20
2022-09-17T17:08:27.492Z,3.88
2022-09-17T17:09:01.948Z,3.90
2022-09-17T17:09:34.180Z,3.38
2022-09-17T17:10:08.989Z,3.90
2022-09-17T17:10:41.545Z,2.95
2022-09-17T17:11:14.022Z,3.75
2022-09-17T17:11:46.271Z,3.42
2022-09-17T17:12:18.435Z,3.63
2022-09-17T17:12:50.539Z,3.80
2022-09-17T17:13:22.810Z,4.07
2022-09-17T17:13:58.296Z,3.22
2022-09-17T17:14:30.300Z,3.30
2022-09-17T17:15:02.576Z,3.45
2022-09-17T17:15:34.619Z,3.95
2022-09-17T17:16:07.645Z,3.75
2022-09-17T17:16:40.984Z,3.88
2022-09-17T17:17:13.252Z,3.47
2022-09-17T17:17:45.348Z,3.65
2022-09-17T17:18:20.351Z,3.67
2022-09-17T17:18:53.464Z,3.72
2022-09-17T17:19:26.986Z,3.55
2022-09-17T17:19:59.366Z,3.50
2022-09-17T17:20:32.113Z,3.88
2022-09-17T17:21:08.594Z,3.63
2022-09-17T17:21:44.038Z,3.70
2022-09-17T17:22:19.067Z,3.75
2022-09-17T17:22:52.027Z,3.95
2022-09-17T17:23:24.196Z,3.63
2022-09-17T17:23:56.236Z,4.13
2022-09-17T17:24:28.248Z,3.08
2022-09-17T17:25:00.313Z,3.90
2022-09-17T17:25:32.584Z,3.58
2022-09-17T17:26:04.864Z,4.30
2022-09-17T17:26:36.932Z,3.63
2022-09-17T17:27:09.645Z,4.07
2022-09-17T17:27:41.700Z,3.45
2022-09-17T17:28:14.984Z,3.17
2022-09-17T17:28:48.281Z,3.92
2022-09-17T17:29:20.405Z,3.83
2022-09-17T17:29:52.424Z,4.07
2022-09-17T17:30:24.431Z,3.67
2022-09-17T17:30:56.478Z,4.35
2022-09-17T17:31:28.750Z,4.00
2022-09-17T17:32:01.605Z,4.55
2022-09-17T17:32:34.380Z,4.25
2022-09-17T17:33:06.920Z,3.90
2022-09-17T17:33:38.895Z,4.93
2022-09-17T17:34:10.943Z,4.05
2022-09-17T17:34:42.933Z,4.10
2022-09-17T17:35:14.924Z,4.15
2022-09-17T17:35:46.900Z,3.28
2022-09-17T17:36:18.974Z,3.40
2022-09-17T17:36:51.080Z,3.50
2022-09-17T17:37:23.396Z,3.58
2022-09-17T17:37:55.457Z,3.65
2022-09-17T17:38:28.349Z,3.10
2022-09-17T17:39:00.622Z,3.38
2022-09-17T17:39:32.721Z,3.45
2022-09-17T17:40:10.142Z,2.88
2022-09-17T17:40:42.224Z,3.63
2022-09-17T17:41:14.989Z,3.20
2022-09-17T17:41:51.555Z,3.33
2022-09-17T17:42:23.967Z,3.03
2022-09-17T17:42:56.347Z,3.15
2022-09-17T17:43:28.398Z,3.05
2022-09-17T17:44:00.446Z,3.60
2022-09-17T17:44:32.503Z,3.60
2022-09-17T17:45:05.351Z,3.20
2022-09-17T17:45:38.407Z,3.33
2022-09-17T17:46:11.574Z,3.85
2022-09-17T17:46:43.757Z,3.72
2022-09-17T17:47:15.835Z,2.60
2022-09-17T17:47:47.821Z,2.60
2022-09-17T17:48:19.799Z,3.30
2022-09-17T17:48:51.939Z,2.92
2022-09-17T17:49:24.019Z,3.03
2022-09-17T17:49:56.075Z,2.80
2022-09-17T17:50:28.102Z,3.00
2022-09-17T17:51:04.069Z,2.85
2022-09-17T17:51:36.037Z,2.72
2022-09-17T17:52:08.195Z,2.97
2022-09-17T17:52:43.417Z,3.00
2022-09-17T17:53:15.495Z,2.60
2022-09-17T17:53:47.563Z,2.50
2022-09-17T17:54:19.659Z,3.10
2022-09-17T17:54:51.812Z,2.58
2022-09-17T17:55:23.877Z,2.70
2022-09-17T17:55:59.742Z,3.40
2022-09-17T17:56:31.726Z,2.90
2022-09-17T17:57:03.863Z,2.40
2022-09-17T17:57:36.089Z,2.70
2022-09-17T17:58:08.178Z,2.80
2022-09-17T17:58:40.820Z,2.55
2022-09-17T17:59:12.864Z,2.75
2022-09-17T17:59:45.905Z,2.60
2022-09-17T18:00:18.374Z,2.78
2022-09-17T18:00:50.438Z,2.47
2022-09-17T18:01:23.743Z,2.70
2022-09-17T18:01:55.882Z,2.60
2022-09-17T18:02:29.178Z,2.20
2022-09-17T18:03:01.565Z,2.75
2022-09-17T18:03:33.617Z,2.75
2022-09-17T18:04:07.802Z,2.47
2022-09-17T18:04:39.864Z,2.03
2022-09-17T18:05:11.845Z,2.15
2022-09-17T18:05:43.817Z,2.20
2022-09-17T18:06:15.841Z,2.10
2022-09-17T18:06:48.209Z,2.30
2022-09-17T18:07:20.209Z,2.30
2022-09-17T18:07:52.199Z,2.25
2022-09-17T18:08:24.323Z,2.53
2022-09-17T18:08:56.735Z,2.00
2022-09-17T18:09:28.943Z,2.30
2022-09-17T18:10:00.942Z,2.15
2022-09-17T18:10:32.963Z,2.00
2022-09-17T18:11:05.251Z,2.30
2022-09-17T18:11:37.339Z,2.00
2022-09-17T18:12:09.349Z,2.13
2022-09-17T18:12:41.716Z,2.10
2022-09-17T18:13:13.765Z,2.35
2022-09-17T18:13:46.048Z,1.88
2022-09-17T18:14:18.053Z,2.50
2022-09-17T18:14:50.232Z,1.83
2022-09-17T18:15:22.277Z,2.55
2022-09-17T18:15:55.676Z,2.20
2022-09-17T18:16:28.318Z,2.10
2022-09-17T18:17:00.405Z,2.08
2022-09-17T18:17:32.474Z,2.30
2022-09-17T18:18:06.387Z,2.40
2022-09-17T18:18:44.207Z,2.80
2022-09-17T18:19:16.664Z,2.00
2022-09-17T18:19:48.701Z,1.85
2022-09-17T18:20:22.679Z,1.90
2022-09-17T18:20:59.584Z,1.88
2022-09-17T18:21:32.051Z,1.80
2022-09-17T18:22:04.453Z,2.60
2022-09-17T18:22:36.615Z,1.60
2022-09-17T18:23:08.617Z,1.80
2022-09-17T18:23:41.477Z,1.92
2022-09-17T18:24:13.617Z,2.30
2022-09-17T18:24:45.664Z,1.98
2022-09-17T18:25:17.842Z,1.70
2022-09-17T18:25:56.647Z,1.80
2022-09-17T18:26:29.218Z,1.90
2022-09-17T18:27:01.195Z,2.05
2022-09-17T18:27:33.259Z,1.85
2022-09-17T18:28:05.252Z,2.03
2022-09-17T18:28:37.532Z,1.83
2022-09-17T18:29:09.641Z,2.40
2022-09-17T18:29:41.668Z,2.22
2022-09-17T18:30:14.593Z,1.60
2022-09-17T18:30:47.118Z,2.30
2022-09-17T18:31:25.011Z,1.80
2022-09-17T18:31:57.132Z,1.63
2022-09-17T18:32:29.165Z,1.88
2022-09-17T18:33:01.163Z,1.85
2022-09-17T18:33:33.247Z,2.10
2022-09-17T18:34:07.148Z,2.05
2022-09-17T18:34:39.162Z,1.67
2022-09-17T18:35:11.257Z,1.83
2022-09-17T18:35:43.369Z,2.25
2022-09-17T18:36:15.570Z,2.10
2022-09-17T18:36:51.017Z,1.90
2022-09-17T18:37:23.425Z,1.85
2022-09-17T18:37:55.447Z,2.15
2022-09-17T18:38:27.516Z,2.10
2022-09-17T18:39:24.146Z,2.33
2022-09-17T18:39:59.087Z,1.90
2022-09-17T18:40:31.645Z,2.00
2022-09-17T18:41:04.657Z,2.00
2022-09-17T18:41:40.103Z,1.73
2022-09-17T18:42:12.130Z,2.08
2022-09-17T18:42:44.133Z,2.55
2022-09-17T18:43:16.182Z,2.10
2022-09-17T18:43:48.380Z,1.98
2022-09-17T18:44:21.838Z,2.13
2022-09-17T18:44:54.053Z,2.72
2022-09-17T18:45:26.073Z,2.30
2022-09-17T18:45:58.162Z,2.05
2022-09-17T18:46:30.716Z,2.42
2022-09-17T18:47:02.952Z,2.38
2022-09-17T18:47:35.118Z,1.63
2022-09-17T18:48:07.240Z,2.00
2022-09-17T18:48:39.231Z,1.70
2022-09-17T18:49:11.287Z,2.15
2022-09-17T18:49:43.324Z,2.03
2022-09-17T18:50:15.629Z,2.00
2022-09-17T18:51:01.042Z,1.80
2022-09-17T18:51:33.033Z,2.03
2022-09-17T18:52:05.055Z,1.80
2022-09-17T18:52:37.161Z,1.98
2022-09-17T18:53:09.272Z,1.40
2022-09-17T18:53:42.026Z,1.80
2022-09-17T18:54:14.230Z,1.90
2022-09-17T18:54:46.373Z,1.67
2022-09-17T18:55:18.358Z,2.75
2022-09-17T18:55:50.529Z,1.98
2022-09-17T18:56:24.186Z,1.83
2022-09-17T18:56:56.157Z,1.65
2022-09-17T18:57:28.171Z,1.80
2022-09-17T18:58:00.168Z,1.55
2022-09-17T18:58:32.389Z,1.70
2022-09-17T18:59:08.141Z,1.40
2022-09-17T18:59:40.457Z,1.95
2022-09-17T19:00:12.682Z,1.48
2022-09-17T19:00:44.864Z,2.03
2022-09-17T19:01:17.568Z,1.73
2022-09-17T19:01:49.680Z,1.45
2022-09-17T19:02:21.774Z,1.88
2022-09-17T19:02:53.914Z,1.70
2022-09-17T19:03:25.893Z,1.48
2022-09-17T19:03:58.902Z,1.92
2022-09-17T19:04:30.886Z,1.63
2022-09-17T19:05:02.986Z,1.70
2022-09-17T19:05:34.972Z,2.35
2022-09-17T19:06:08.250Z,1.77
2022-09-17T19:06:40.809Z,1.60
2022-09-17T19:07:12.874Z,1.52
2022-09-17T19:07:46.024Z,1.83
2022-09-17T19:08:21.632Z,1.40
2022-09-17T19:08:55.483Z,1.52
2022-09-17T19:09:27.658Z,1.60
2022-09-17T19:10:00.708Z,1.65
2022-09-17T19:10:32.856Z,1.60
2022-09-17T19:11:05.400Z,1.30
2022-09-17T19:11:37.376Z,1.50
2022-09-17T19:12:09.562Z,1.83
2022-09-17T19:12:42.305Z,1.50
2022-09-17T19:13:14.276Z,1.55
2022-09-17T19:13:49.087Z,1.48
2022-09-17T19:14:21.139Z,1.77
2022-09-17T19:14:54.226Z,2.05
2022-09-17T19:15:26.192Z,1.23
2022-09-17T19:15:59.462Z,1.65
2022-09-17T19:16:31.584Z,1.30
2022-09-17T19:17:03.663Z,2.10
2022-09-17T19:17:35.863Z,1.58
2022-09-17T19:18:07.872Z,1.73
2022-09-17T19:18:39.883Z,2.22
2022-09-17T19:19:11.860Z,1.73
2022-09-17T19:19:44.138Z,1.63
2022-09-17T19:20:19.600Z,1.80
2022-09-17T19:20:51.658Z,1.33
2022-09-17T19:21:23.658Z,2.00
2022-09-17T19:21:55.825Z,1.67
2022-09-17T19:22:27.807Z,1.60
2022-09-17T19:22:59.810Z,1.70
2022-09-17T19:23:31.817Z,1.40
2022-09-17T19:24:04.080Z,1.92
2022-09-17T19:24:36.185Z,1.70
2022-09-17T19:25:08.293Z,1.90
2022-09-17T19:25:40.378Z,1.75
2022-09-17T19:26:13.927Z,1.80
2022-09-17T19:26:50.672Z,1.60
2022-09-17T19:27:22.988Z,1.58
2022-09-17T19:27:56.093Z,1.67
2022-09-17T19:28:28.082Z,1.92
2022-09-17T19:29:02.943Z,1.80
2022-09-17T19:29:34.941Z,1.80
2022-09-17T19:30:07.339Z,1.60
2022-09-17T19:30:39.371Z,1.75
2022-09-17T19:31:12.790Z,2.05
2022-09-17T19:31:44.940Z,1.70
2022-09-17T19:32:17.094Z,2.03
2022-09-17T19:32:49.383Z,2.25
2022-09-17T19:33:21.478Z,1.65
2022-09-17T19:33:53.717Z,2.53
2022-09-17T19:34:25.737Z,1.80
2022-09-17T19:34:58.125Z,2.03
2022-09-17T19:35:30.146Z,1.90
2022-09-17T19:36:02.956Z,1.92
2022-09-17T19:36:34.994Z,1.83
2022-09-17T19:37:07.051Z,1.60
2022-09-17T19:37:39.053Z,2.33
2022-09-17T19:38:13.469Z,2.05
2022-09-17T19:38:46.149Z,1.90
2022-09-17T19:39:18.182Z,1.45
2022-09-17T19:39:50.276Z,1.85
2022-09-17T19:40:22.423Z,1.83
2022-09-17T19:40:55.332Z,1.73
2022-09-17T19:41:27.416Z,1.90
2022-09-17T19:41:59.448Z,1.55
2022-09-17T19:42:31.813Z,1.85
2022-09-17T19:43:03.853Z,1.73
2022-09-17T19:43:35.884Z,1.52
2022-09-17T19:44:08.709Z,2.03
2022-09-17T19:44:40.742Z,1.70
2022-09-17T19:45:12.772Z,1.48
2022-09-17T19:45:44.776Z,1.90
2022-09-17T19:46:18.259Z,1.65
2022-09-17T19:46:52.898Z,2.08
2022-09-17T19:47:24.975Z,1.80
2022-09-17T19:48:01.613Z,1.70
2022-09-17T19:48:36.228Z,1.80
2022-09-17T19:49:09.938Z,1.35
2022-09-17T19:49:43.683Z,1.83
2022-09-17T19:50:16.164Z,1.88
2022-09-17T19:50:51.844Z,1.45
2022-09-17T19:51:25.126Z,1.58
2022-09-17T19:51:57.187Z,1.80
2022-09-17T19:52:29.231Z,2.35
2022-09-17T19:53:01.235Z,1.73
2022-09-17T19:53:33.480Z,1.80
2022-09-17T19:54:06.984Z,1.80
2022-09-17T19:54:39.043Z,1.80
2022-09-17T19:55:12.982Z,1.50